createdAt,value
2019-03-23T00:00:06.837Z,3.05
2019-03-23T00:05:11.258Z,3.42
2019-03-23T00:10:16.816Z,4.15
2019-03-23T00:15:21.866Z,3.80
2019-03-23T00:20:27.305Z,4.20
2019-03-23T00:25:31.929Z,4.62
2019-03-23T00:35:45.678Z,3.85
2019-03-23T00:40:57.425Z,4.80
2019-03-23T00:46:02.528Z,4.37
2019-03-23T00:51:28.395Z,4.30
2019-03-23T00:57:18.436Z,3.40
2019-03-23T01:03:00.678Z,3.98
2019-03-23T01:08:07.859Z,3.72
2019-03-23T01:13:18.186Z,4.05
2019-03-23T01:18:25.257Z,4.83
2019-03-23T01:23:29.759Z,4.28
2019-03-23T01:28:34.439Z,3.72
2019-03-23T01:38:42.525Z,3.72
2019-03-23T01:48:52.780Z,3.98
2019-03-23T01:54:01.931Z,4.17
2019-03-23T01:59:09.356Z,4.28
2019-03-23T02:04:33.203Z,4.30
2019-03-23T02:09:42.415Z,4.03
2019-03-23T02:14:46.807Z,4.75
2019-03-23T02:19:51.915Z,6.03
2019-03-23T02:24:58.729Z,5.28
2019-03-23T02:30:03.566Z,3.95
2019-03-23T02:35:08.970Z,4.45
2019-03-23T02:40:13.432Z,4.40
2019-03-23T02:45:20.516Z,4.22
2019-03-23T02:50:25.202Z,4.78
2019-03-23T02:55:29.694Z,5.12
2019-03-23T03:00:34.173Z,4.95
2019-03-23T03:05:41.225Z,4.97
2019-03-23T03:11:23.729Z,4.97
2019-03-23T03:16:29.080Z,7.00
2019-03-23T03:21:36.676Z,9.45
2019-03-23T03:26:42.635Z,11.70
2019-03-23T03:31:51.211Z,13.62
2019-03-23T03:36:58.427Z,17.02
2019-03-23T03:42:21.827Z,18.77
2019-03-23T03:47:43.935Z,17.83
2019-03-23T03:52:52.309Z,20.50
2019-03-23T03:58:02.324Z,21.85
2019-03-23T04:03:06.919Z,24.95
2019-03-23T04:13:17.044Z,29.55
2019-03-23T04:18:43.168Z,26.20
2019-03-23T04:23:47.777Z,28.87
2019-03-23T04:33:59.634Z,25.32
2019-03-23T04:44:14.384Z,29.65
2019-03-23T04:49:19.294Z,31.50
2019-03-23T04:54:23.939Z,28.15
2019-03-23T05:04:35.558Z,33.50
2019-03-23T05:09:40.294Z,28.23
2019-03-23T05:20:06.853Z,25.00
2019-03-23T05:25:22.186Z,28.92
2019-03-23T05:30:29.615Z,33.78
2019-03-23T05:35:36.584Z,34.23
2019-03-23T05:40:48.345Z,31.75
2019-03-23T05:45:53.648Z,31.23
2019-03-23T05:50:58.407Z,31.50
2019-03-23T05:56:02.754Z,27.95
2019-03-23T06:01:07.157Z,28.23
2019-03-23T06:06:11.843Z,27.25
2019-03-23T06:16:23.647Z,22.80
2019-03-23T06:21:28.001Z,23.85
2019-03-23T06:26:34.046Z,23.45
2019-03-23T06:31:39.519Z,26.68
2019-03-23T06:36:51.160Z,30.17
2019-03-23T06:41:57.210Z,30.40
2019-03-23T06:47:02.801Z,32.75
2019-03-23T06:52:07.108Z,25.12
2019-03-23T06:57:11.412Z,31.65
2019-03-23T07:02:18.197Z,27.37
2019-03-23T07:07:23.090Z,27.93
2019-03-23T07:12:29.139Z,15.75
2019-03-23T07:17:58.155Z,26.85
2019-03-23T07:23:02.966Z,27.98
2019-03-23T07:28:08.061Z,28.57
2019-03-23T07:33:13.803Z,27.42
2019-03-23T07:38:18.581Z,32.55
2019-03-23T07:43:22.939Z,30.92
2019-03-23T07:48:30.825Z,31.97
2019-03-23T07:53:54.589Z,29.70
2019-03-23T07:58:59.032Z,28.10
2019-03-23T08:04:13.979Z,31.85
2019-03-23T08:09:20.718Z,32.85
2019-03-23T08:14:32.771Z,29.12
2019-03-23T08:19:37.546Z,32.55
2019-03-23T08:24:42.277Z,28.42
2019-03-23T08:34:49.873Z,23.80
2019-03-23T08:39:54.146Z,29.10
2019-03-23T08:44:58.537Z,26.02
2019-03-23T08:50:02.891Z,26.00
2019-03-23T08:55:07.184Z,27.20
2019-03-23T09:00:11.632Z,29.63
2019-03-23T09:05:16.377Z,31.27
2019-03-23T09:10:26.249Z,28.25
2019-03-23T09:15:32.137Z,32.10
2019-03-23T09:20:36.519Z,30.72
2019-03-23T09:25:42.020Z,29.70
2019-03-23T09:31:14.198Z,29.18
2019-03-23T09:36:22.909Z,29.72
2019-03-23T09:42:02.060Z,27.65
2019-03-23T09:47:11.980Z,27.77
2019-03-23T09:52:18.710Z,28.55
2019-03-23T09:57:24.402Z,27.40
2019-03-23T10:02:36.188Z,27.40
2019-03-23T10:08:03.574Z,29.98
2019-03-23T10:13:08.085Z,26.00
2019-03-23T10:19:13.691Z,28.00
2019-03-23T10:24:46.599Z,30.95
2019-03-23T10:29:51.347Z,24.98
2019-03-23T10:40:02.496Z,29.05
2019-03-23T10:45:07.028Z,24.63
2019-03-23T10:50:11.395Z,26.07
2019-03-23T10:55:17.278Z,27.62
2019-03-23T11:00:21.632Z,26.87
2019-03-23T11:05:26.078Z,28.10
2019-03-23T11:10:31.538Z,26.97
2019-03-23T11:15:36.100Z,28.47
2019-03-23T11:20:41.047Z,27.27
2019-03-23T11:25:45.311Z,27.00
2019-03-23T11:30:49.780Z,26.90
2019-03-23T11:35:58.106Z,25.43
2019-03-23T11:41:01.300Z,27.17
2019-03-23T11:46:05.676Z,25.82
2019-03-23T11:51:10.017Z,24.80
2019-03-23T11:56:14.587Z,28.57
2019-03-23T12:01:19.134Z,27.85
2019-03-23T12:06:23.443Z,25.57
2019-03-23T12:11:28.112Z,24.40
2019-03-23T12:21:36.150Z,26.02
2019-03-23T12:26:40.482Z,25.17
2019-03-23T12:31:45.111Z,24.75
2019-03-23T12:36:49.681Z,22.55
2019-03-23T12:41:54.662Z,23.73
2019-03-23T12:46:58.996Z,24.60
2019-03-23T12:52:04.619Z,25.82
2019-03-23T12:57:09.047Z,24.63
2019-03-23T13:02:13.400Z,24.80
2019-03-23T13:07:17.758Z,23.15
2019-03-23T13:12:22.102Z,24.43
2019-03-23T13:17:26.763Z,26.55
2019-03-23T13:22:31.314Z,24.52
2019-03-23T13:27:35.924Z,23.67
2019-03-23T13:32:40.253Z,26.07
2019-03-23T13:37:44.828Z,25.45
2019-03-23T13:42:49.136Z,24.07
2019-03-23T13:47:54.939Z,23.95
2019-03-23T13:52:59.413Z,27.07
2019-03-23T13:58:09.890Z,26.62
2019-03-23T14:03:14.894Z,24.72
2019-03-23T14:08:19.518Z,24.35
2019-03-23T14:13:27.785Z,26.42
2019-03-23T14:18:32.044Z,25.92
2019-03-23T14:23:36.437Z,26.55
2019-03-23T14:28:40.850Z,27.85
2019-03-23T14:33:47.361Z,26.33
2019-03-23T14:38:52.159Z,24.75
2019-03-23T14:49:03.860Z,29.32
2019-03-23T14:54:08.657Z,25.43
2019-03-23T15:04:16.146Z,27.07
2019-03-23T15:09:20.487Z,26.97
2019-03-23T15:14:24.759Z,24.70
2019-03-23T15:19:29.362Z,26.75
2019-03-23T15:24:37.815Z,26.50
2019-03-23T15:29:42.466Z,27.22
2019-03-23T15:34:47.280Z,25.75
2019-03-23T15:44:55.388Z,26.43
2019-03-23T15:49:59.773Z,26.45
2019-03-23T15:55:05.781Z,27.02
2019-03-23T16:00:11.431Z,26.90
2019-03-23T16:05:18.940Z,25.08
2019-03-23T16:10:23.298Z,27.00
2019-03-23T16:15:27.566Z,26.70
2019-03-23T16:20:35.656Z,26.37
2019-03-23T16:25:43.354Z,25.30
2019-03-23T16:30:48.143Z,25.23
2019-03-23T16:41:01.626Z,26.20
2019-03-23T16:46:06.025Z,26.02
2019-03-23T16:51:12.187Z,27.05
2019-03-23T16:56:16.569Z,26.33
2019-03-23T17:01:23.730Z,26.33
2019-03-23T17:06:28.055Z,25.25
2019-03-23T17:11:39.283Z,25.05
2019-03-23T17:16:46.744Z,24.60
2019-03-23T17:21:53.034Z,27.20
2019-03-23T17:27:00.064Z,27.65
2019-03-23T17:32:06.352Z,26.70
2019-03-23T17:37:10.935Z,27.62
2019-03-23T17:42:15.615Z,25.77
2019-03-23T17:47:19.954Z,27.05
2019-03-23T17:52:25.131Z,27.62
2019-03-23T17:57:29.828Z,26.82
2019-03-23T18:02:34.963Z,26.00
2019-03-23T18:07:39.911Z,26.07
2019-03-23T18:12:44.319Z,27.67
2019-03-23T18:17:56.166Z,28.47
2019-03-23T18:23:00.539Z,28.07
2019-03-23T18:28:04.933Z,27.40
2019-03-23T18:33:11.162Z,28.52
2019-03-23T18:38:15.546Z,27.40
2019-03-23T18:43:27.339Z,29.50
2019-03-23T18:48:26.288Z,28.40
2019-03-23T18:53:30.600Z,30.30
2019-03-23T18:58:34.887Z,26.85
2019-03-23T19:03:40.449Z,29.40
2019-03-23T19:08:44.909Z,26.10
2019-03-23T19:13:49.637Z,27.13
2019-03-23T19:23:57.194Z,29.48
2019-03-23T19:29:01.489Z,26.50
2019-03-23T19:34:05.852Z,31.40
2019-03-23T19:39:14.143Z,25.72
2019-03-23T19:44:21.265Z,27.93
2019-03-23T19:49:25.598Z,27.40
2019-03-23T19:54:30.160Z,27.00
2019-03-23T19:59:34.505Z,26.70
2019-03-23T20:04:39.403Z,28.17
2019-03-23T20:09:43.708Z,26.62
2019-03-23T20:14:47.984Z,20.95
2019-03-23T20:19:52.297Z,21.52
2019-03-23T20:24:56.644Z,19.77
2019-03-23T20:30:01.066Z,19.35
2019-03-23T20:35:05.741Z,18.25
2019-03-23T20:40:10.600Z,15.78
2019-03-23T20:45:28.537Z,11.48
2019-03-23T20:50:33.718Z,13.03
2019-03-23T20:55:38.024Z,10.15
2019-03-23T21:00:42.435Z,10.30
2019-03-23T21:05:47.140Z,9.23
2019-03-23T21:15:54.674Z,8.25
2019-03-23T21:20:58.994Z,6.70
2019-03-23T21:26:04.128Z,7.00
2019-03-23T21:31:09.496Z,8.10
2019-03-23T21:36:13.826Z,7.83
2019-03-23T21:41:18.515Z,7.60
2019-03-23T21:51:25.981Z,6.95
2019-03-23T21:56:31.163Z,7.25
2019-03-23T22:01:35.819Z,6.67
2019-03-23T22:06:40.125Z,6.33
2019-03-23T22:11:44.463Z,7.37
2019-03-23T22:16:50.167Z,8.33
2019-03-23T22:21:54.529Z,7.30
2019-03-23T22:26:58.889Z,7.65
2019-03-23T22:32:07.106Z,7.33
2019-03-23T22:37:11.411Z,7.60
2019-03-23T22:42:16.516Z,7.92
2019-03-23T22:47:20.865Z,7.70
2019-03-23T22:52:25.242Z,8.83
2019-03-23T22:57:29.479Z,8.78
2019-03-23T23:02:33.934Z,9.83
2019-03-23T23:07:38.318Z,9.65
2019-03-23T23:12:42.617Z,9.20
2019-03-23T23:17:47.141Z,9.80
2019-03-23T23:22:51.488Z,9.23
2019-03-23T23:27:56.113Z,8.88
2019-03-23T23:33:00.679Z,8.30
2019-03-23T23:38:05.053Z,9.68
2019-03-23T23:43:09.831Z,10.30
2019-03-23T23:53:17.639Z,9.43
2019-03-23T23:58:22.251Z,9.43
